Dades de l'estació automàtica Espot (2.519 m)
Resum diari
21:30 TU| Temperatura mitjana | 1.0 °C | |
|---|---|---|
| Temperatura màxima | 2.7 °C | 13:10 TU |
| Temperatura mínima | -0.7 °C | 21:14 TU |
| Humitat relativa mitjana | 94% | |
| Precipitació acumulada | 9.3 mm | |
| Gruix de neu màxim | 3 cm | |
| Ratxa màxima del vent (10 m) | 40.0 km/h - 291º | 1:05 TU |
| Irradiació solar global | 8.3 MJ/m2 | |
El tram horari està expressat en Temps Universal (TU). Cal sumar una hora en horari d'hivern i dues en horari d'estiu per passar a l'hora oficial.
Espot (2.519 m)
| Municipi | Espot |
|---|---|
| Comarca | Pallars Sobirà |
| Altitud | 2519 m |
| Data alta | 01.03.2002 |
| Estat actual | Operativa |
| Període TU |
TM °C |
TX °C |
TN °C |
HRM % |
PPT mm |
GN cm |
VVM (10 m) km/h |
DVM (10 m) graus |
VVX (10 m) km/h |
RS W/m2 |
|---|---|---|---|---|---|---|---|---|---|---|
| 00:00 - 00:30 | 0.9 | 1.0 | 0.8 | 100 | 0.0 | 0 | 7.2 | 315 | 23.8 | 0 |
| 00:30 - 01:00 | 0.9 | 1.1 | 0.8 | 100 | 0.0 | 0 | 11.2 | 289 | 34.9 | 0 |
| 01:00 - 01:30 | 1.1 | 1.2 | 1.1 | 95 | 0.0 | 0 | 16.2 | 268 | 40.0 | 0 |
| 01:30 - 02:00 | 1.2 | 1.3 | 1.1 | 90 | 0.0 | 0 | 12.2 | 265 | 27.7 | 0 |
| 02:00 - 02:30 | 1.1 | 1.3 | 1.0 | 91 | 0.0 | 0 | 7.2 | 314 | 23.8 | 0 |
| 02:30 - 03:00 | 1.3 | 1.3 | 1.2 | 89 | 0.0 | 0 | 9.0 | 276 | 20.5 | 0 |
| 03:00 - 03:30 | 1.2 | 1.3 | 1.1 | 90 | 0.0 | 0 | 10.4 | 288 | 24.8 | 0 |
| 03:30 - 04:00 | 1.2 | 1.2 | 1.1 | 90 | 0.0 | 0 | 9.0 | 248 | 22.7 | 0 |
| 04:00 - 04:30 | 0.8 | 1.1 | 0.6 | 93 | 0.3 | 0 | 6.5 | 238 | 17.3 | 0 |
| 04:30 - 05:00 | 0.5 | 0.6 | 0.3 | 97 | 0.4 | 0 | 4.0 | 242 | 14.4 | 1 |
| 05:00 - 05:30 | 0.2 | 0.3 | -0.1 | 100 | 0.7 | 1 | 1.1 | 312 | 8.6 | 15 |
| 05:30 - 06:00 | -0.1 | 0.1 | -0.3 | 100 | 1.1 | 2 | 0.7 | 261 | 11.5 | 14 |
| 06:00 - 06:30 | 0.1 | 0.3 | -0.2 | 99 | 0.3 | 2 | (s/d) | (s/d) | (s/d) | 48 |
| 06:30 - 07:00 | 0.3 | 0.7 | -0.2 | 97 | 0.5 | 2 | 4.7 | 299 | 20.9 | 77 |
| 07:00 - 07:30 | 0.7 | 0.8 | 0.5 | 95 | 0.0 | 2 | 5.4 | 76 | 24.1 | 77 |
| 07:30 - 08:00 | 0.5 | 0.6 | 0.4 | 99 | 0.0 | 2 | 4.3 | 150 | 18.4 | 82 |
| 08:00 - 08:30 | 0.9 | 1.1 | 0.6 | 94 | 0.0 | 2 | 5.4 | 121 | 16.9 | 187 |
| 08:30 - 09:00 | 1.1 | 1.4 | 0.8 | 93 | 0.0 | 2 | 5.0 | 158 | 18.4 | 221 |
| 09:00 - 09:30 | 1.0 | 1.1 | 0.9 | 94 | 0.5 | 2 | 5.8 | 168 | 18.4 | 169 |
| 09:30 - 10:00 | 1.2 | 1.4 | 0.9 | 97 | 0.0 | 3 | 4.3 | 249 | 17.3 | 250 |
| 10:00 - 10:30 | 1.3 | 1.6 | 1.0 | 97 | 0.7 | 3 | 6.8 | 245 | 26.3 | 171 |
| 10:30 - 11:00 | 1.2 | 1.5 | 0.9 | 93 | 0.4 | 3 | 5.4 | 273 | 16.6 | 363 |
| 11:00 - 11:30 | 1.7 | 2.0 | 1.5 | 89 | 0.0 | 3 | 7.6 | 224 | 25.6 | 356 |
| 11:30 - 12:00 | 1.6 | 2.0 | 0.9 | 92 | 0.6 | 3 | 6.8 | 177 | 33.5 | 228 |
| 12:00 - 12:30 | 1.4 | 2.1 | 0.9 | 93 | 0.1 | 3 | 6.8 | 106 | 29.5 | 335 |
| 12:30 - 13:00 | 2.0 | 2.1 | 1.9 | 89 | 0.0 | 2 | 6.1 | 151 | 22.3 | 324 |
| 13:00 - 13:30 | 2.2 | 2.7 | 1.9 | 86 | 0.0 | 2 | 5.4 | 74 | 14.0 | 402 |
| 13:30 - 14:00 | 1.9 | 2.2 | 1.3 | 90 | 0.2 | 2 | 7.2 | 181 | 21.6 | 76 |
| 14:00 - 14:30 | 1.0 | 1.3 | 0.8 | 97 | 1.7 | 2 | 1.8 | 273 | 10.8 | 160 |
| 14:30 - 15:00 | 1.3 | 1.7 | 1.1 | 94 | 0.2 | 2 | 7.9 | 334 | 26.6 | 296 |
| 15:00 - 15:30 | 1.6 | 1.7 | 1.4 | 92 | 0.0 | 2 | 3.6 | 248 | 11.5 | 186 |
| 15:30 - 16:00 | 1.5 | 1.6 | 1.4 | 95 | 0.2 | 2 | 2.2 | 57 | 8.3 | 121 |
| 16:00 - 16:30 | 1.2 | 1.4 | 1.0 | 99 | 0.2 | 2 | 4.0 | 51 | 11.5 | 115 |
| 16:30 - 17:00 | 1.2 | 1.3 | 1.1 | 99 | 0.3 | 2 | 4.7 | 60 | 11.5 | 137 |
| 17:00 - 17:30 | 1.0 | 1.3 | 0.8 | 99 | 0.2 | 2 | 3.2 | 37 | 11.2 | 74 |
| 17:30 - 18:00 | 1.3 | 1.3 | 1.2 | 95 | 0.0 | 2 | 2.9 | 255 | 13.3 | 77 |
| 18:00 - 18:30 | 1.2 | 1.3 | 1.1 | 92 | 0.0 | 2 | 5.8 | 230 | 13.7 | 36 |
| 18:30 - 19:00 | 1.1 | 1.3 | 0.6 | 91 | 0.0 | 2 | 7.2 | 245 | 20.5 | 4 |
| 19:00 - 19:30 | 0.4 | 0.6 | 0.2 | 99 | 0.5 | 2 | 5.8 | 219 | 15.1 | 0 |
| 19:30 - 20:00 | 0.4 | 0.6 | 0.2 | 93 | 0.2 | 2 | 4.7 | 254 | 15.8 | 0 |
| 20:00 - 20:30 | 0.0 | 0.5 | -0.2 | 98 | 0.0 | 2 | 0.0 | 0 | 0.0 | 0 |
| 20:30 - 21:00 | 0.0 | 0.3 | -0.2 | 99 | 0.0 | 2 | 0.0 | 0 | 0.0 | 0 |
| 21:00 - 21:30 | -0.1 | 0.5 | -0.7 | 92 | 0.0 | 2 | 0.0 | 0 | 0.0 | 0 |
| 21:30 - 22:00 | 0.2 | 0.4 | -0.4 | 75 | 0.0 | 2 | 0.0 | 0 | 0.0 | 0 |
Les dades en taronja només han passat un control de qualitat automàtic. Resta pendent la seva validació definitiva.